KUUU Airport (Newport State) Information

FAA: UUU - ICAO: KUUU

KUUU Airport Location

State Rhode Island
County Newport
City Newport
KUUU Airport is 2 miles northeast of Newport, RI.
Latitude 41-31-56.7831N
Longitude 071-16-53.5582W
Elevation 171ft

KUUU Airport METARs

METAR KUUU 251613Z AUTO VRB04KT 10SM BKN018 OVC046 18/17 A2997 RMK AO2 T01830167
Altimeter 29.97"
Temperature 18.3°C (64.9°F)
Wind 0° at 4KT
Clouds broken at 1,800ft overcast at 4,600ft
Visibility 10.0mi
Time observed: 2021-10-25T16:13:00Z

KUUU Airport Details

Status Operational
Activation January 1947
Ownership Public
Usage Public
Chart NEW YORK
ATC on-site No
Beacon schedule sunset-sunrise
Beacon color clear green

KUUU Airport Contacts

Owner STATE OF RHODE ISLAND
Owner address RHODE ISLAND AIRPORT CORPORATION, 2000 POST RD, WARWICK, RI 02886
Owner phone (401) 691-2000
Manager W. E. RITTS
Manager address 144 ROCKYTOP LANE, WORTHINGTON, PA 16262
Manager phone 724-297-3690

KUUU Airport (Newport State) Radio Frequencies

KUUU (Airport) Radio Frequencies

UNICOM 123.05
Common traffic advisory frequency (CTAF) 123.05